Airfield :
LOGIN :

Register | Disclaimer

   EN    FR    IT 

 










Legend :    VFR   Marginal VFR   IFR   Intensive IFR   Very Intensive IFR
Visi :
Ceiling :
>= 8 km
>= 3000ft
5 to 8 km
1000 to 3000 ft
1500m to 5 km
500 to 1000 ft
800 to 1500m
200 to 500 ft
< 800m
< 200 ft
Symbols :   Thunderstorms  Fog  Heavy snow  Heavy precipitations  Wind > 20 kt
SIGMETs :     Misc.  Thunderstorms  Icing  Turbulence  Mountain Waves  Volcanic Ashes






- Airport Elevation : 327 ft
- IATA code : BHX


EGBB - Birmingham

CURRENT METAR :
  • 071950Z 19013KT 9999 BKN011 09/08 Q1006

EXPIRED METARs :
  • 071850Z 20011KT 180V240 9999 SCT009 09/07 Q1007
  • 071820Z 21009KT 9999 FEW010 SCT020 09/07 Q1008
  • 071750Z 21010KT 170V250 9999 FEW020 08/07 Q1009
  • 071720Z 20006KT 170V240 9999 FEW009 08/07 Q1009

TAF TAF EGBB
Valid from the 07 at 18:00 until the 08 at 18:00 UTC


071655Z 0718/0818 21009KT 9999 SCT030
BECMG 0718/0721 20015G25KT BKN012
TEMPO 0721/0806 21023G37KT SCT012
TEMPO 0723/0804 6000 RA
BECMG 0806/0809 25012KT SCT020
TEMPO 0806/0812 26018G28KT
PROB30
TEMPO 0806/0818 7000 SHRA
ATIS : +44 121 780 0910



MET'MAP, your aeronautical weather chart ! - Copyright ORBIFLY December 2007 - Disclaimer

ORBIFLY MET'MAP TEAM :

Programming & Development : Alexandra Zaïnal
Concept & original design : Baudouin d'Aumeries
Assistance for programming : Marc-Olivier Méhu
Technical & hardware support : Manuel Goepfert

Contact : metmap@orbifly.com




SOURCES & CREDITS :

   NOAA